sensor_id;sensor_type;location;lat;lon;timestamp;P1;durP1;ratioP1;P2;durP2;ratioP2
5682;SDS011;2864;49.220;8.654;2023-01-09T00:02:06;2.70;;;2.37;;
5682;SDS011;2864;49.220;8.654;2023-01-09T00:04:32;2.93;;;2.67;;
5682;SDS011;2864;49.220;8.654;2023-01-09T00:06:58;3.10;;;2.80;;
5682;SDS011;2864;49.220;8.654;2023-01-09T00:09:24;4.07;;;2.70;;
5682;SDS011;2864;49.220;8.654;2023-01-09T00:11:50;3.73;;;2.70;;
5682;SDS011;2864;49.220;8.654;2023-01-09T00:14:16;2.97;;;2.50;;
5682;SDS011;2864;49.220;8.654;2023-01-09T00:16:42;2.60;;;2.40;;
5682;SDS011;2864;49.220;8.654;2023-01-09T00:19:08;2.53;;;2.33;;
5682;SDS011;2864;49.220;8.654;2023-01-09T00:21:34;3.00;;;2.63;;
5682;SDS011;2864;49.220;8.654;2023-01-09T00:24:00;3.07;;;2.57;;
5682;SDS011;2864;49.220;8.654;2023-01-09T00:26:26;2.67;;;2.47;;
5682;SDS011;2864;49.220;8.654;2023-01-09T00:28:52;3.17;;;2.47;;
5682;SDS011;2864;49.220;8.654;2023-01-09T00:31:18;2.60;;;2.40;;
5682;SDS011;2864;49.220;8.654;2023-01-09T00:33:45;2.80;;;2.60;;
5682;SDS011;2864;49.220;8.654;2023-01-09T00:36:16;2.60;;;2.40;;
5682;SDS011;2864;49.220;8.654;2023-01-09T00:38:42;2.70;;;2.37;;
5682;SDS011;2864;49.220;8.654;2023-01-09T00:41:10;2.47;;;2.23;;
5682;SDS011;2864;49.220;8.654;2023-01-09T00:43:41;2.47;;;2.27;;
5682;SDS011;2864;49.220;8.654;2023-01-09T00:46:10;3.50;;;2.33;;
5682;SDS011;2864;49.220;8.654;2023-01-09T00:48:38;2.50;;;2.30;;
5682;SDS011;2864;49.220;8.654;2023-01-09T00:51:07;2.20;;;2.00;;
5682;SDS011;2864;49.220;8.654;2023-01-09T00:53:32;2.53;;;2.20;;
5682;SDS011;2864;49.220;8.654;2023-01-09T00:56:03;2.77;;;2.27;;
5682;SDS011;2864;49.220;8.654;2023-01-09T00:58:32;2.90;;;1.90;;
5682;SDS011;2864;49.220;8.654;2023-01-09T01:00:58;3.80;;;1.97;;
5682;SDS011;2864;49.220;8.654;2023-01-09T01:03:23;2.17;;;1.83;;
5682;SDS011;2864;49.220;8.654;2023-01-09T01:05:49;2.23;;;2.00;;
5682;SDS011;2864;49.220;8.654;2023-01-09T01:08:34;4.33;;;2.00;;
5682;SDS011;2864;49.220;8.654;2023-01-09T01:11:02;2.23;;;1.80;;
5682;SDS011;2864;49.220;8.654;2023-01-09T01:13:29;2.10;;;1.77;;
5682;SDS011;2864;49.220;8.654;2023-01-09T01:15:55;1.80;;;1.70;;
5682;SDS011;2864;49.220;8.654;2023-01-09T01:18:21;2.00;;;1.80;;
5682;SDS011;2864;49.220;8.654;2023-01-09T01:20:47;2.73;;;1.70;;
5682;SDS011;2864;49.220;8.654;2023-01-09T01:23:12;1.60;;;1.50;;
5682;SDS011;2864;49.220;8.654;2023-01-09T01:25:41;1.60;;;1.50;;
5682;SDS011;2864;49.220;8.654;2023-01-09T01:28:07;1.47;;;1.37;;
5682;SDS011;2864;49.220;8.654;2023-01-09T01:30:35;1.57;;;1.47;;
5682;SDS011;2864;49.220;8.654;2023-01-09T01:33:05;1.60;;;1.50;;
5682;SDS011;2864;49.220;8.654;2023-01-09T01:35:31;2.03;;;1.77;;
5682;SDS011;2864;49.220;8.654;2023-01-09T01:37:57;2.20;;;1.60;;
5682;SDS011;2864;49.220;8.654;2023-01-09T01:40:23;2.57;;;1.90;;
5682;SDS011;2864;49.220;8.654;2023-01-09T01:42:49;1.90;;;1.70;;
5682;SDS011;2864;49.220;8.654;2023-01-09T01:45:19;2.40;;;1.60;;
5682;SDS011;2864;49.220;8.654;2023-01-09T01:47:52;1.70;;;1.30;;
5682;SDS011;2864;49.220;8.654;2023-01-09T01:50:43;1.63;;;1.53;;
5682;SDS011;2864;49.220;8.654;2023-01-09T01:53:19;4.13;;;1.40;;
5682;SDS011;2864;49.220;8.654;2023-01-09T01:56:10;1.47;;;1.10;;
5682;SDS011;2864;49.220;8.654;2023-01-09T01:58:47;2.87;;;1.13;;
5682;SDS011;2864;49.220;8.654;2023-01-09T02:01:14;1.13;;;1.10;;
5682;SDS011;2864;49.220;8.654;2023-01-09T02:03:40;1.30;;;1.20;;
5682;SDS011;2864;49.220;8.654;2023-01-09T02:06:07;2.40;;;1.00;;
5682;SDS011;2864;49.220;8.654;2023-01-09T02:08:33;1.63;;;1.10;;
5682;SDS011;2864;49.220;8.654;2023-01-09T02:11:00;1.00;;;1.00;;
5682;SDS011;2864;49.220;8.654;2023-01-09T02:13:26;1.20;;;1.10;;
5682;SDS011;2864;49.220;8.654;2023-01-09T02:18:49;1.10;;;1.00;;
5682;SDS011;2864;49.220;8.654;2023-01-09T02:21:37;1.00;;;1.00;;
5682;SDS011;2864;49.220;8.654;2023-01-09T02:24:27;1.00;;;1.00;;
5682;SDS011;2864;49.220;8.654;2023-01-09T02:32:53;1.20;;;1.10;;
5682;SDS011;2864;49.220;8.654;2023-01-09T02:38:19;1.27;;;1.17;;
5682;SDS011;2864;49.220;8.654;2023-01-09T02:41:21;1.00;;;1.00;;
5682;SDS011;2864;49.220;8.654;2023-01-09T02:47:32;1.20;;;1.20;;
5682;SDS011;2864;49.220;8.654;2023-01-09T02:50:03;2.10;;;1.17;;
5682;SDS011;2864;49.220;8.654;2023-01-09T02:58:11;1.67;;;1.30;;
5682;SDS011;2864;49.220;8.654;2023-01-09T03:03:37;1.40;;;1.30;;
5682;SDS011;2864;49.220;8.654;2023-01-09T03:08:47;1.50;;;1.33;;
5682;SDS011;2864;49.220;8.654;2023-01-09T03:11:16;1.37;;;1.27;;
5682;SDS011;2864;49.220;8.654;2023-01-09T03:13:45;1.50;;;1.37;;
5682;SDS011;2864;49.220;8.654;2023-01-09T03:16:24;1.30;;;1.20;;
5682;SDS011;2864;49.220;8.654;2023-01-09T03:18:55;2.03;;;1.20;;
5682;SDS011;2864;49.220;8.654;2023-01-09T03:21:22;2.37;;;1.67;;
5682;SDS011;2864;49.220;8.654;2023-01-09T03:23:52;2.20;;;1.40;;
5682;SDS011;2864;49.220;8.654;2023-01-09T03:26:20;1.40;;;1.30;;
5682;SDS011;2864;49.220;8.654;2023-01-09T03:28:46;1.40;;;1.30;;
5682;SDS011;2864;49.220;8.654;2023-01-09T03:31:12;1.30;;;1.20;;
5682;SDS011;2864;49.220;8.654;2023-01-09T03:33:38;1.50;;;1.30;;
5682;SDS011;2864;49.220;8.654;2023-01-09T03:36:04;1.20;;;1.20;;
5682;SDS011;2864;49.220;8.654;2023-01-09T03:38:30;1.30;;;1.20;;
5682;SDS011;2864;49.220;8.654;2023-01-09T03:40:56;1.30;;;1.20;;
5682;SDS011;2864;49.220;8.654;2023-01-09T03:43:22;1.43;;;1.10;;
5682;SDS011;2864;49.220;8.654;2023-01-09T03:45:47;2.60;;;1.30;;
5682;SDS011;2864;49.220;8.654;2023-01-09T03:48:13;3.03;;;1.30;;
5682;SDS011;2864;49.220;8.654;2023-01-09T03:50:39;1.30;;;1.20;;
5682;SDS011;2864;49.220;8.654;2023-01-09T03:53:09;1.10;;;1.10;;
5682;SDS011;2864;49.220;8.654;2023-01-09T03:55:37;1.30;;;1.20;;
5682;SDS011;2864;49.220;8.654;2023-01-09T03:58:03;1.40;;;1.20;;
5682;SDS011;2864;49.220;8.654;2023-01-09T04:00:29;1.10;;;1.10;;
5682;SDS011;2864;49.220;8.654;2023-01-09T04:02:54;1.97;;;1.30;;
5682;SDS011;2864;49.220;8.654;2023-01-09T04:05:20;1.00;;;1.00;;
5682;SDS011;2864;49.220;8.654;2023-01-09T04:07:46;1.53;;;1.30;;
5682;SDS011;2864;49.220;8.654;2023-01-09T04:10:11;1.30;;;1.20;;
5682;SDS011;2864;49.220;8.654;2023-01-09T04:12:37;1.60;;;1.50;;
5682;SDS011;2864;49.220;8.654;2023-01-09T04:15:03;1.20;;;1.10;;
5682;SDS011;2864;49.220;8.654;2023-01-09T04:17:28;2.50;;;1.20;;
5682;SDS011;2864;49.220;8.654;2023-01-09T04:19:54;1.27;;;1.17;;
5682;SDS011;2864;49.220;8.654;2023-01-09T04:22:20;1.17;;;1.10;;
5682;SDS011;2864;49.220;8.654;2023-01-09T04:24:46;1.30;;;1.10;;
5682;SDS011;2864;49.220;8.654;2023-01-09T04:27:11;1.33;;;1.20;;
5682;SDS011;2864;49.220;8.654;2023-01-09T04:29:37;1.13;;;1.10;;
5682;SDS011;2864;49.220;8.654;2023-01-09T04:32:03;1.20;;;1.10;;
5682;SDS011;2864;49.220;8.654;2023-01-09T04:34:28;2.83;;;1.10;;
5682;SDS011;2864;49.220;8.654;2023-01-09T04:36:54;1.33;;;1.00;;
5682;SDS011;2864;49.220;8.654;2023-01-09T04:39:20;2.23;;;1.80;;
5682;SDS011;2864;49.220;8.654;2023-01-09T04:41:46;3.67;;;1.60;;
5682;SDS011;2864;49.220;8.654;2023-01-09T04:44:19;1.53;;;1.10;;
5682;SDS011;2864;49.220;8.654;2023-01-09T04:46:46;1.27;;;1.17;;
5682;SDS011;2864;49.220;8.654;2023-01-09T04:49:12;1.40;;;1.30;;
5682;SDS011;2864;49.220;8.654;2023-01-09T04:51:38;1.33;;;1.20;;
5682;SDS011;2864;49.220;8.654;2023-01-09T04:54:03;2.70;;;1.30;;
5682;SDS011;2864;49.220;8.654;2023-01-09T04:56:29;1.67;;;1.20;;
5682;SDS011;2864;49.220;8.654;2023-01-09T04:58:55;1.87;;;1.17;;
5682;SDS011;2864;49.220;8.654;2023-01-09T05:01:21;1.23;;;1.10;;
5682;SDS011;2864;49.220;8.654;2023-01-09T05:03:47;1.20;;;1.10;;
5682;SDS011;2864;49.220;8.654;2023-01-09T05:06:13;2.80;;;1.13;;
5682;SDS011;2864;49.220;8.654;2023-01-09T05:08:38;1.10;;;1.00;;
5682;SDS011;2864;49.220;8.654;2023-01-09T05:11:04;1.20;;;1.10;;
5682;SDS011;2864;49.220;8.654;2023-01-09T05:13:30;1.20;;;1.00;;
5682;SDS011;2864;49.220;8.654;2023-01-09T05:15:56;1.87;;;1.20;;
5682;SDS011;2864;49.220;8.654;2023-01-09T05:18:22;1.20;;;1.10;;
5682;SDS011;2864;49.220;8.654;2023-01-09T05:20:48;1.93;;;1.23;;
5682;SDS011;2864;49.220;8.654;2023-01-09T05:23:14;2.10;;;1.20;;
5682;SDS011;2864;49.220;8.654;2023-01-09T05:25:40;1.63;;;1.20;;
5682;SDS011;2864;49.220;8.654;2023-01-09T05:28:06;1.50;;;1.10;;
5682;SDS011;2864;49.220;8.654;2023-01-09T05:30:32;3.27;;;1.40;;
5682;SDS011;2864;49.220;8.654;2023-01-09T05:32:58;2.27;;;1.27;;
5682;SDS011;2864;49.220;8.654;2023-01-09T05:35:23;1.30;;;1.20;;
5682;SDS011;2864;49.220;8.654;2023-01-09T05:37:49;1.93;;;1.30;;
5682;SDS011;2864;49.220;8.654;2023-01-09T05:40:15;1.37;;;1.23;;
5682;SDS011;2864;49.220;8.654;2023-01-09T05:42:43;2.53;;;1.43;;
5682;SDS011;2864;49.220;8.654;2023-01-09T05:45:09;1.73;;;1.30;;
5682;SDS011;2864;49.220;8.654;2023-01-09T05:47:35;2.70;;;1.90;;
5682;SDS011;2864;49.220;8.654;2023-01-09T05:50:01;3.57;;;1.50;;
5682;SDS011;2864;49.220;8.654;2023-01-09T05:52:28;3.73;;;1.70;;
5682;SDS011;2864;49.220;8.654;2023-01-09T05:54:53;1.70;;;1.47;;
5682;SDS011;2864;49.220;8.654;2023-01-09T05:57:19;1.30;;;1.20;;
5682;SDS011;2864;49.220;8.654;2023-01-09T05:59:45;3.43;;;1.30;;
5682;SDS011;2864;49.220;8.654;2023-01-09T06:02:10;1.30;;;1.20;;
5682;SDS011;2864;49.220;8.654;2023-01-09T06:04:36;1.73;;;1.20;;
5682;SDS011;2864;49.220;8.654;2023-01-09T06:07:03;6.13;;;1.37;;
5682;SDS011;2864;49.220;8.654;2023-01-09T06:09:30;5.50;;;1.30;;
5682;SDS011;2864;49.220;8.654;2023-01-09T06:11:56;2.23;;;1.40;;
5682;SDS011;2864;49.220;8.654;2023-01-09T06:14:22;3.40;;;1.47;;
5682;SDS011;2864;49.220;8.654;2023-01-09T06:16:47;2.53;;;1.57;;
5682;SDS011;2864;49.220;8.654;2023-01-09T06:19:13;4.53;;;1.80;;
5682;SDS011;2864;49.220;8.654;2023-01-09T06:21:39;4.03;;;1.67;;
5682;SDS011;2864;49.220;8.654;2023-01-09T06:24:05;3.13;;;1.50;;
5682;SDS011;2864;49.220;8.654;2023-01-09T06:26:31;4.03;;;1.50;;
5682;SDS011;2864;49.220;8.654;2023-01-09T06:28:57;4.33;;;1.63;;
5682;SDS011;2864;49.220;8.654;2023-01-09T06:31:25;4.90;;;1.90;;
5682;SDS011;2864;49.220;8.654;2023-01-09T06:33:51;3.83;;;1.47;;
5682;SDS011;2864;49.220;8.654;2023-01-09T06:36:16;3.43;;;1.37;;
5682;SDS011;2864;49.220;8.654;2023-01-09T06:38:42;1.50;;;1.30;;
5682;SDS011;2864;49.220;8.654;2023-01-09T06:41:08;2.67;;;1.47;;
5682;SDS011;2864;49.220;8.654;2023-01-09T06:43:34;3.47;;;1.30;;
5682;SDS011;2864;49.220;8.654;2023-01-09T06:46:02;1.80;;;1.37;;
5682;SDS011;2864;49.220;8.654;2023-01-09T06:48:29;3.03;;;1.07;;
5682;SDS011;2864;49.220;8.654;2023-01-09T06:50:56;3.53;;;1.43;;
5682;SDS011;2864;49.220;8.654;2023-01-09T06:53:21;2.73;;;1.40;;
5682;SDS011;2864;49.220;8.654;2023-01-09T06:55:47;2.47;;;1.57;;
5682;SDS011;2864;49.220;8.654;2023-01-09T06:58:13;5.53;;;1.50;;
5682;SDS011;2864;49.220;8.654;2023-01-09T07:00:39;2.87;;;1.40;;
5682;SDS011;2864;49.220;8.654;2023-01-09T07:03:05;2.43;;;1.40;;
5682;SDS011;2864;49.220;8.654;2023-01-09T07:05:31;1.53;;;1.20;;
5682;SDS011;2864;49.220;8.654;2023-01-09T07:08:03;1.50;;;1.17;;
5682;SDS011;2864;49.220;8.654;2023-01-09T07:10:29;4.30;;;1.20;;
5682;SDS011;2864;49.220;8.654;2023-01-09T07:12:55;2.90;;;1.27;;
5682;SDS011;2864;49.220;8.654;2023-01-09T07:15:21;2.33;;;1.40;;
5682;SDS011;2864;49.220;8.654;2023-01-09T07:17:48;2.00;;;1.40;;
5682;SDS011;2864;49.220;8.654;2023-01-09T07:20:17;3.77;;;1.50;;
5682;SDS011;2864;49.220;8.654;2023-01-09T07:22:43;2.07;;;1.30;;
5682;SDS011;2864;49.220;8.654;2023-01-09T07:25:09;3.13;;;1.40;;
5682;SDS011;2864;49.220;8.654;2023-01-09T07:27:35;4.60;;;1.33;;
5682;SDS011;2864;49.220;8.654;2023-01-09T07:30:01;2.57;;;1.23;;
5682;SDS011;2864;49.220;8.654;2023-01-09T07:32:27;2.90;;;1.43;;
5682;SDS011;2864;49.220;8.654;2023-01-09T07:34:53;4.17;;;1.33;;
5682;SDS011;2864;49.220;8.654;2023-01-09T07:37:19;4.87;;;1.47;;
5682;SDS011;2864;49.220;8.654;2023-01-09T07:39:45;4.90;;;1.30;;
5682;SDS011;2864;49.220;8.654;2023-01-09T07:42:11;1.97;;;1.20;;
5682;SDS011;2864;49.220;8.654;2023-01-09T07:44:37;3.80;;;1.40;;
5682;SDS011;2864;49.220;8.654;2023-01-09T07:47:03;5.40;;;1.47;;
5682;SDS011;2864;49.220;8.654;2023-01-09T07:49:29;3.00;;;1.43;;
5682;SDS011;2864;49.220;8.654;2023-01-09T07:51:54;2.87;;;1.50;;
5682;SDS011;2864;49.220;8.654;2023-01-09T07:54:20;3.07;;;1.53;;
5682;SDS011;2864;49.220;8.654;2023-01-09T07:56:46;6.07;;;2.00;;
5682;SDS011;2864;49.220;8.654;2023-01-09T07:59:12;4.67;;;1.77;;
5682;SDS011;2864;49.220;8.654;2023-01-09T08:01:38;4.73;;;1.90;;
5682;SDS011;2864;49.220;8.654;2023-01-09T08:04:04;3.07;;;1.50;;
5682;SDS011;2864;49.220;8.654;2023-01-09T08:06:31;5.17;;;1.90;;
5682;SDS011;2864;49.220;8.654;2023-01-09T08:08:57;6.40;;;1.90;;
5682;SDS011;2864;49.220;8.654;2023-01-09T08:11:23;3.63;;;1.90;;
5682;SDS011;2864;49.220;8.654;2023-01-09T08:13:49;3.80;;;1.40;;
5682;SDS011;2864;49.220;8.654;2023-01-09T08:16:15;4.40;;;1.63;;
5682;SDS011;2864;49.220;8.654;2023-01-09T08:18:41;4.33;;;1.60;;
5682;SDS011;2864;49.220;8.654;2023-01-09T08:21:07;7.00;;;1.90;;
5682;SDS011;2864;49.220;8.654;2023-01-09T08:23:35;6.33;;;1.73;;
5682;SDS011;2864;49.220;8.654;2023-01-09T08:26:01;5.03;;;1.53;;
5682;SDS011;2864;49.220;8.654;2023-01-09T08:28:26;6.53;;;1.70;;
5682;SDS011;2864;49.220;8.654;2023-01-09T08:30:52;7.20;;;1.63;;
5682;SDS011;2864;49.220;8.654;2023-01-09T08:33:18;6.33;;;1.70;;
5682;SDS011;2864;49.220;8.654;2023-01-09T08:35:44;5.43;;;1.77;;
5682;SDS011;2864;49.220;8.654;2023-01-09T08:38:10;5.40;;;1.47;;
5682;SDS011;2864;49.220;8.654;2023-01-09T08:40:36;3.43;;;1.50;;
5682;SDS011;2864;49.220;8.654;2023-01-09T08:43:02;4.57;;;1.50;;
5682;SDS011;2864;49.220;8.654;2023-01-09T08:45:46;7.60;;;1.90;;
5682;SDS011;2864;49.220;8.654;2023-01-09T08:48:31;2.57;;;1.60;;
5682;SDS011;2864;49.220;8.654;2023-01-09T08:50:57;4.53;;;1.37;;
5682;SDS011;2864;49.220;8.654;2023-01-09T08:53:22;2.03;;;1.03;;
5682;SDS011;2864;49.220;8.654;2023-01-09T08:55:48;5.00;;;1.50;;
5682;SDS011;2864;49.220;8.654;2023-01-09T08:58:14;3.47;;;1.60;;
5682;SDS011;2864;49.220;8.654;2023-01-09T09:00:40;2.87;;;1.23;;
5682;SDS011;2864;49.220;8.654;2023-01-09T09:03:06;3.50;;;1.30;;
5682;SDS011;2864;49.220;8.654;2023-01-09T09:05:32;6.33;;;1.50;;
5682;SDS011;2864;49.220;8.654;2023-01-09T09:07:58;2.30;;;1.53;;
5682;SDS011;2864;49.220;8.654;2023-01-09T09:10:25;2.93;;;1.37;;
5682;SDS011;2864;49.220;8.654;2023-01-09T09:12:52;5.17;;;1.77;;
5682;SDS011;2864;49.220;8.654;2023-01-09T09:15:20;2.60;;;1.30;;
5682;SDS011;2864;49.220;8.654;2023-01-09T09:17:56;2.90;;;1.30;;
5682;SDS011;2864;49.220;8.654;2023-01-09T09:20:24;2.47;;;1.20;;
5682;SDS011;2864;49.220;8.654;2023-01-09T09:22:52;2.00;;;1.10;;
5682;SDS011;2864;49.220;8.654;2023-01-09T09:25:18;2.73;;;1.20;;
5682;SDS011;2864;49.220;8.654;2023-01-09T09:27:44;2.00;;;1.27;;
5682;SDS011;2864;49.220;8.654;2023-01-09T09:30:10;2.80;;;1.30;;
5682;SDS011;2864;49.220;8.654;2023-01-09T09:32:37;2.60;;;1.27;;
5682;SDS011;2864;49.220;8.654;2023-01-09T09:35:04;1.47;;;0.93;;
5682;SDS011;2864;49.220;8.654;2023-01-09T09:37:31;5.57;;;1.70;;
5682;SDS011;2864;49.220;8.654;2023-01-09T09:39:56;3.70;;;1.10;;
5682;SDS011;2864;49.220;8.654;2023-01-09T09:42:26;3.80;;;1.60;;
5682;SDS011;2864;49.220;8.654;2023-01-09T09:47:58;2.77;;;1.40;;
5682;SDS011;2864;49.220;8.654;2023-01-09T09:50:45;3.67;;;1.60;;
5682;SDS011;2864;49.220;8.654;2023-01-09T09:53:33;6.30;;;1.80;;
5682;SDS011;2864;49.220;8.654;2023-01-09T09:56:04;3.63;;;1.70;;
5682;SDS011;2864;49.220;8.654;2023-01-09T09:58:34;4.13;;;1.57;;
5682;SDS011;2864;49.220;8.654;2023-01-09T10:01:02;6.27;;;2.20;;
5682;SDS011;2864;49.220;8.654;2023-01-09T10:03:37;4.80;;;1.90;;
5682;SDS011;2864;49.220;8.654;2023-01-09T10:06:16;4.63;;;2.20;;
5682;SDS011;2864;49.220;8.654;2023-01-09T10:08:58;3.20;;;1.80;;
5682;SDS011;2864;49.220;8.654;2023-01-09T10:11:36;4.67;;;1.80;;
5682;SDS011;2864;49.220;8.654;2023-01-09T10:14:09;4.57;;;2.63;;
5682;SDS011;2864;49.220;8.654;2023-01-09T10:27:33;6.57;;;1.87;;
5682;SDS011;2864;49.220;8.654;2023-01-09T10:30:03;5.43;;;1.80;;
5682;SDS011;2864;49.220;8.654;2023-01-09T10:32:47;5.40;;;1.67;;
5682;SDS011;2864;49.220;8.654;2023-01-09T10:35:37;3.70;;;1.57;;
5682;SDS011;2864;49.220;8.654;2023-01-09T10:38:18;4.27;;;1.50;;
5682;SDS011;2864;49.220;8.654;2023-01-09T10:40:50;3.83;;;1.20;;
5682;SDS011;2864;49.220;8.654;2023-01-09T10:45:56;6.63;;;1.90;;
5682;SDS011;2864;49.220;8.654;2023-01-09T10:48:31;6.53;;;1.63;;
5682;SDS011;2864;49.220;8.654;2023-01-09T10:50:59;4.27;;;1.60;;
5682;SDS011;2864;49.220;8.654;2023-01-09T10:55:53;4.90;;;1.60;;
5682;SDS011;2864;49.220;8.654;2023-01-09T10:58:23;5.50;;;1.57;;
5682;SDS011;2864;49.220;8.654;2023-01-09T11:00:49;2.50;;;1.40;;
5682;SDS011;2864;49.220;8.654;2023-01-09T11:03:20;3.40;;;1.30;;
5682;SDS011;2864;49.220;8.654;2023-01-09T11:05:49;6.70;;;1.43;;
5682;SDS011;2864;49.220;8.654;2023-01-09T11:11:06;2.83;;;1.20;;
5682;SDS011;2864;49.220;8.654;2023-01-09T11:13:33;3.33;;;1.30;;
5682;SDS011;2864;49.220;8.654;2023-01-09T11:18:39;5.97;;;1.30;;
5682;SDS011;2864;49.220;8.654;2023-01-09T11:23:51;2.00;;;1.37;;
5682;SDS011;2864;49.220;8.654;2023-01-09T11:26:26;2.43;;;1.27;;
5682;SDS011;2864;49.220;8.654;2023-01-09T11:31:42;2.67;;;1.50;;
5682;SDS011;2864;49.220;8.654;2023-01-09T11:34:18;2.60;;;1.57;;
5682;SDS011;2864;49.220;8.654;2023-01-09T11:36:46;3.77;;;1.40;;
5682;SDS011;2864;49.220;8.654;2023-01-09T11:39:24;5.60;;;1.40;;
5682;SDS011;2864;49.220;8.654;2023-01-09T11:41:55;4.00;;;1.40;;
5682;SDS011;2864;49.220;8.654;2023-01-09T11:44:22;5.47;;;1.73;;
5682;SDS011;2864;49.220;8.654;2023-01-09T11:46:49;4.30;;;1.87;;
5682;SDS011;2864;49.220;8.654;2023-01-09T11:49:22;3.03;;;1.63;;
5682;SDS011;2864;49.220;8.654;2023-01-09T11:52:12;3.70;;;1.90;;
5682;SDS011;2864;49.220;8.654;2023-01-09T11:54:44;2.53;;;1.50;;
5682;SDS011;2864;49.220;8.654;2023-01-09T11:57:23;4.93;;;1.53;;
5682;SDS011;2864;49.220;8.654;2023-01-09T11:59:49;2.63;;;1.50;;
5682;SDS011;2864;49.220;8.654;2023-01-09T12:08:00;3.07;;;1.57;;
5682;SDS011;2864;49.220;8.654;2023-01-09T12:22:18;1.80;;;1.47;;
5682;SDS011;2864;49.220;8.654;2023-01-09T12:33:29;5.07;;;1.60;;
5682;SDS011;2864;49.220;8.654;2023-01-09T12:36:19;3.57;;;1.87;;
5682;SDS011;2864;49.220;8.654;2023-01-09T12:47:01;3.37;;;1.40;;
5682;SDS011;2864;49.220;8.654;2023-01-09T12:50:30;3.03;;;1.50;;
5682;SDS011;2864;49.220;8.654;2023-01-09T12:52:35;2.20;;;1.40;;
5682;SDS011;2864;49.220;8.654;2023-01-09T12:57:34;7.10;;;3.27;;
5682;SDS011;2864;49.220;8.654;2023-01-09T13:00:04;3.70;;;1.80;;
5682;SDS011;2864;49.220;8.654;2023-01-09T13:05:09;4.33;;;1.70;;
5682;SDS011;2864;49.220;8.654;2023-01-09T13:07:43;3.83;;;1.40;;
5682;SDS011;2864;49.220;8.654;2023-01-09T13:10:16;3.70;;;1.30;;
5682;SDS011;2864;49.220;8.654;2023-01-09T13:13:03;4.43;;;1.77;;
5682;SDS011;2864;49.220;8.654;2023-01-09T13:15:42;2.33;;;1.43;;
5682;SDS011;2864;49.220;8.654;2023-01-09T13:20:38;2.33;;;1.60;;
5682;SDS011;2864;49.220;8.654;2023-01-09T13:23:11;4.50;;;1.50;;
5682;SDS011;2864;49.220;8.654;2023-01-09T13:25:46;2.60;;;1.37;;
5682;SDS011;2864;49.220;8.654;2023-01-09T13:28:22;3.37;;;1.40;;
5682;SDS011;2864;49.220;8.654;2023-01-09T13:33:37;3.10;;;1.77;;
5682;SDS011;2864;49.220;8.654;2023-01-09T13:36:06;4.23;;;1.47;;
5682;SDS011;2864;49.220;8.654;2023-01-09T13:38:42;4.53;;;1.80;;
5682;SDS011;2864;49.220;8.654;2023-01-09T13:41:14;3.93;;;2.00;;
5682;SDS011;2864;49.220;8.654;2023-01-09T13:44:04;3.43;;;1.87;;
5682;SDS011;2864;49.220;8.654;2023-01-09T13:46:47;4.97;;;1.87;;
5682;SDS011;2864;49.220;8.654;2023-01-09T13:58:12;3.97;;;1.77;;
5682;SDS011;2864;49.220;8.654;2023-01-09T14:08:00;3.07;;;1.50;;
5682;SDS011;2864;49.220;8.654;2023-01-09T14:13:22;2.67;;;1.30;;
5682;SDS011;2864;49.220;8.654;2023-01-09T14:15:52;2.90;;;1.30;;
5682;SDS011;2864;49.220;8.654;2023-01-09T14:18:34;2.97;;;1.30;;
5682;SDS011;2864;49.220;8.654;2023-01-09T14:21:03;3.33;;;1.30;;
5682;SDS011;2864;49.220;8.654;2023-01-09T14:26:17;3.23;;;1.47;;
5682;SDS011;2864;49.220;8.654;2023-01-09T14:28:47;2.70;;;1.87;;
5682;SDS011;2864;49.220;8.654;2023-01-09T14:31:27;3.97;;;1.40;;
5682;SDS011;2864;49.220;8.654;2023-01-09T14:36:50;2.93;;;1.23;;
5682;SDS011;2864;49.220;8.654;2023-01-09T14:39:19;2.10;;;1.40;;
5682;SDS011;2864;49.220;8.654;2023-01-09T14:41:55;4.67;;;2.00;;
5682;SDS011;2864;49.220;8.654;2023-01-09T14:47:18;4.33;;;1.50;;
5682;SDS011;2864;49.220;8.654;2023-01-09T14:50:17;2.03;;;1.40;;
5682;SDS011;2864;49.220;8.654;2023-01-09T14:53:06;2.33;;;1.30;;
5682;SDS011;2864;49.220;8.654;2023-01-09T14:55:41;6.17;;;1.50;;
5682;SDS011;2864;49.220;8.654;2023-01-09T15:00:51;1.53;;;1.40;;
5682;SDS011;2864;49.220;8.654;2023-01-09T15:03:21;1.53;;;1.33;;
5682;SDS011;2864;49.220;8.654;2023-01-09T15:05:48;1.57;;;1.20;;
5682;SDS011;2864;49.220;8.654;2023-01-09T15:08:17;2.77;;;1.60;;
5682;SDS011;2864;49.220;8.654;2023-01-09T15:10:47;4.77;;;1.70;;
5682;SDS011;2864;49.220;8.654;2023-01-09T15:13:21;2.67;;;1.60;;
5682;SDS011;2864;49.220;8.654;2023-01-09T15:15:54;2.80;;;1.50;;
5682;SDS011;2864;49.220;8.654;2023-01-09T15:18:21;2.67;;;1.50;;
5682;SDS011;2864;49.220;8.654;2023-01-09T15:20:53;4.63;;;1.50;;
5682;SDS011;2864;49.220;8.654;2023-01-09T15:23:23;1.90;;;1.47;;
5682;SDS011;2864;49.220;8.654;2023-01-09T15:25:53;2.63;;;1.40;;
5682;SDS011;2864;49.220;8.654;2023-01-09T15:28:28;5.13;;;1.60;;
5682;SDS011;2864;49.220;8.654;2023-01-09T15:33:28;3.93;;;1.40;;
5682;SDS011;2864;49.220;8.654;2023-01-09T15:35:55;4.80;;;1.30;;
5682;SDS011;2864;49.220;8.654;2023-01-09T15:38:26;1.73;;;1.33;;
5682;SDS011;2864;49.220;8.654;2023-01-09T15:40:59;2.37;;;1.40;;
5682;SDS011;2864;49.220;8.654;2023-01-09T15:43:28;3.57;;;1.33;;
5682;SDS011;2864;49.220;8.654;2023-01-09T15:45:55;4.83;;;1.37;;
5682;SDS011;2864;49.220;8.654;2023-01-09T15:48:29;3.10;;;1.37;;
5682;SDS011;2864;49.220;8.654;2023-01-09T15:53:27;2.67;;;1.33;;
5682;SDS011;2864;49.220;8.654;2023-01-09T15:56:01;3.50;;;1.40;;
5682;SDS011;2864;49.220;8.654;2023-01-09T15:58:32;1.37;;;1.20;;
5682;SDS011;2864;49.220;8.654;2023-01-09T16:01:05;1.43;;;1.27;;
5682;SDS011;2864;49.220;8.654;2023-01-09T16:03:43;1.87;;;1.37;;
5682;SDS011;2864;49.220;8.654;2023-01-09T16:06:12;4.37;;;1.27;;
5682;SDS011;2864;49.220;8.654;2023-01-09T16:08:47;5.67;;;2.53;;
5682;SDS011;2864;49.220;8.654;2023-01-09T16:14:19;11.57;;;4.87;;
5682;SDS011;2864;49.220;8.654;2023-01-09T16:16:47;7.70;;;3.53;;
5682;SDS011;2864;49.220;8.654;2023-01-09T16:19:31;12.03;;;4.43;;
5682;SDS011;2864;49.220;8.654;2023-01-09T16:22:50;5.63;;;2.57;;
5682;SDS011;2864;49.220;8.654;2023-01-09T16:25:01;6.93;;;3.70;;
5682;SDS011;2864;49.220;8.654;2023-01-09T16:28:07;3.87;;;2.43;;
5682;SDS011;2864;49.220;8.654;2023-01-09T16:30:47;6.73;;;2.60;;
5682;SDS011;2864;49.220;8.654;2023-01-09T16:33:33;5.97;;;2.10;;
5682;SDS011;2864;49.220;8.654;2023-01-09T16:35:59;5.90;;;1.90;;
5682;SDS011;2864;49.220;8.654;2023-01-09T16:38:28;2.17;;;1.40;;
5682;SDS011;2864;49.220;8.654;2023-01-09T16:43:46;3.97;;;2.00;;
5682;SDS011;2864;49.220;8.654;2023-01-09T16:46:13;4.30;;;1.40;;
5682;SDS011;2864;49.220;8.654;2023-01-09T16:48:40;5.90;;;1.50;;
5682;SDS011;2864;49.220;8.654;2023-01-09T16:51:06;3.73;;;1.67;;
5682;SDS011;2864;49.220;8.654;2023-01-09T16:53:39;6.33;;;2.30;;
5682;SDS011;2864;49.220;8.654;2023-01-09T16:56:07;4.00;;;1.67;;
5682;SDS011;2864;49.220;8.654;2023-01-09T16:58:50;5.43;;;1.93;;
5682;SDS011;2864;49.220;8.654;2023-01-09T17:01:19;4.63;;;1.70;;
5682;SDS011;2864;49.220;8.654;2023-01-09T17:03:45;6.70;;;1.70;;
5682;SDS011;2864;49.220;8.654;2023-01-09T17:06:14;5.50;;;1.77;;
5682;SDS011;2864;49.220;8.654;2023-01-09T17:08:45;3.63;;;1.80;;
5682;SDS011;2864;49.220;8.654;2023-01-09T17:11:16;6.17;;;2.30;;
5682;SDS011;2864;49.220;8.654;2023-01-09T17:13:44;4.27;;;2.60;;
5682;SDS011;2864;49.220;8.654;2023-01-09T17:16:11;5.53;;;1.73;;
5682;SDS011;2864;49.220;8.654;2023-01-09T17:18:37;3.47;;;1.80;;
5682;SDS011;2864;49.220;8.654;2023-01-09T17:21:04;3.57;;;2.20;;
5682;SDS011;2864;49.220;8.654;2023-01-09T17:23:30;7.40;;;2.37;;
5682;SDS011;2864;49.220;8.654;2023-01-09T17:25:56;6.70;;;2.00;;
5682;SDS011;2864;49.220;8.654;2023-01-09T17:28:43;1.90;;;1.70;;
5682;SDS011;2864;49.220;8.654;2023-01-09T17:31:14;4.87;;;1.90;;
5682;SDS011;2864;49.220;8.654;2023-01-09T17:33:40;5.47;;;1.90;;
5682;SDS011;2864;49.220;8.654;2023-01-09T17:36:12;6.27;;;2.87;;
5682;SDS011;2864;49.220;8.654;2023-01-09T17:38:58;4.53;;;2.00;;
5682;SDS011;2864;49.220;8.654;2023-01-09T17:41:25;4.00;;;2.07;;
5682;SDS011;2864;49.220;8.654;2023-01-09T17:43:53;9.00;;;2.40;;
5682;SDS011;2864;49.220;8.654;2023-01-09T17:46:21;3.20;;;2.00;;
5682;SDS011;2864;49.220;8.654;2023-01-09T17:48:51;6.57;;;1.83;;
5682;SDS011;2864;49.220;8.654;2023-01-09T17:51:17;6.73;;;2.07;;
5682;SDS011;2864;49.220;8.654;2023-01-09T17:53:44;4.67;;;2.50;;